• Join FlightAware (Why Join?)
  • Login
  • US Flag 
06:19AM EDT


 

Airport Tracker/Info


-or-


 

Live Flight TrackerFlight Track Log ✈ SKW5631 ✈ 25-Apr-2013 ✈ KSFO - KSBA

Flight Track Log - Related Links

Times and Time Zones

All times are in EDT time to prevent confusion due to time zone crossing. See the SKW5631 flight status page for this flight to view local times or setup timezone preferences in your user account.

Time Position Orientation Groundspeed Altitude Reporting Facility
EDT Latitude Longitude Course Direction KTS MPH feet Rate Location/Type
10:29AM 37.6500 -122.3667 338° Northwest 151 174 1,500  Level Northern Cal TRACON
10:30AM 37.6833 -122.3833 338° Northwest 186 214 3,100 1,560 Climbing Northern Cal TRACON
10:31AM 37.6500 -122.4167 218° Southwest 193 222 4,400 1,140 Climbing Northern Cal TRACON
10:32AM 37.6122 -122.4347 201° Southwest 210 242 5,300 960 Climbing Oakland Center
10:33AM 37.5347 -122.4578 193° South 233 268 6,400 1,500 Climbing Oakland Center
10:34AM 37.4708 -122.4547 178° South 232 267 8,400 1,920 Climbing Oakland Center
10:35AM 37.4117 -122.4531 179° South 215 247 10,400 1,860 Climbing Oakland Center
10:36AM 37.3550 -122.4508 178° South 207 238 12,200 1,620 Climbing Oakland Center
10:37AM 37.2964 -122.4511 180° South 212 244 13,700 1,200 Climbing Oakland Center
10:38AM 37.2317 -122.4511 180° South 229 264 14,700 1,020 Climbing Oakland Center
10:39AM 37.1642 -122.4475 178° South 243 280 15,800 1,080 Climbing Oakland Center
10:40AM 37.0958 -122.4431 177° South 247 284 16,900 1,020 Climbing Oakland Center
10:41AM 37.0394 -122.3969 147° Southeast 246 283 17,900 960 Climbing Oakland Center
10:42AM 36.9836 -122.3478 145° Southeast 245 282 18,900 960 Climbing Oakland Center
10:43AM 36.9150 -122.2892 146° Southeast 250 288 19,900 900 Climbing Oakland Center
10:44AM 36.8569 -122.2369 144° Southeast 256 295 20,800 780 Climbing Oakland Center
10:45AM 36.7967 -122.1883 147° Southeast 259 298 21,600 720 Climbing Oakland Center
10:46AM 36.7331 -122.1453 152° Southeast 260 299 22,300 720 Climbing Oakland Center
10:47AM 36.6669 -122.1022 152° Southeast 267 307 23,100 720 Climbing Oakland Center
10:48AM 36.6053 -122.0542 148° Southeast 263 303 23,800 600 Climbing Oakland Center
10:49AM 36.5403 -122.0075 150° Southeast 268 308 24,400 540 Climbing Oakland Center
10:50AM 36.4756 -121.9619 150° Southeast 269 310 24,900 240 Climbing Oakland Center
10:51AM 36.4078 -121.9133 150° Southeast 280 322 25,000  Climbing Oakland Center
10:52AM 36.3392 -121.8608 148° Southeast 288 331 25,000  Level Oakland Center
10:53AM 36.2744 -121.7917 139° Southeast 289 333 25,000  Level Oakland Center
10:54AM 36.2122 -121.7289 141° Southeast 289 333 25,000  Level Oakland Center
10:55AM 36.1497 -121.6656 141° Southeast 290 334 25,000  Level Oakland Center
10:56AM 36.0750 -121.5903 141° Southeast 290 334 25,000  Level Oakland Center
10:57AM 36.0119 -121.5278 141° Southeast 291 335 25,000  Level Oakland Center
10:58AM 35.9494 -121.4647 141° Southeast 290 334 25,000  Level Oakland Center
10:59AM 35.8861 -121.4019 141° Southeast 292 336 25,000  Level Oakland Center
11:00AM 35.8222 -121.3392 141° Southeast 295 339 25,000  Level Oakland Center
11:01AM 35.7586 -121.2756 141° Southeast 296 341 25,000  Level Oakland Center
11:02AM 35.6933 -121.2131 142° Southeast 297 342 25,000  Level Oakland Center
11:03AM 35.6292 -121.1492 141° Southeast 298 343 25,000  Level Oakland Center
11:05AM 35.5647 -121.0861 141° Southeast 298 343 25,000  Level Oakland Center
11:06AM 35.4997 -121.0233 142° Southeast 298 343 25,000  Level Oakland Center
11:07AM 35.4225 -120.9472 141° Southeast 299 344 25,000 -480 Level Oakland Center
11:08AM 35.3567 -120.8833 142° Southeast 303 349 24,100 -720 Descending Oakland Center
11:08AM 35.3369 -120.8647 142° Southeast 305 351 24,000 -660 Descending Los Angeles Center
11:09AM 35.2697 -120.7992 141° Southeast 308 354 23,200 -1,260 Descending Los Angeles Center
11:10AM 35.1925 -120.7253 142° Southeast 291 335 21,500 -1,440 Descending Los Angeles Center
11:11AM 35.1347 -120.6675 141° Southeast 272 313 20,300 -1,260 Descending Los Angeles Center
11:12AM 35.0753 -120.6108 142° Southeast 270 311 19,000 -1,260 Descending Los Angeles Center
11:13AM 35.0169 -120.5536 141° Southeast 269 310 17,700 -1,260 Descending Los Angeles Center
11:14AM 34.9589 -120.4986 142° Southeast 265 305 16,400 -1,380 Descending Los Angeles Center
11:15AM 34.9336 -120.4750 143° Southeast 260 299 15,800 -1,260 Descending Los Angeles Center
11:15AM 34.9025 -120.4450 142° Southeast 258 297 15,100 -1,440 Descending Los Angeles Center
11:15AM 34.8822 -120.4258 142° Southeast 259 298 14,500 -1,380 Descending Los Angeles Center
11:16AM 34.8497 -120.3956 143° Southeast 241 277 13,700 -1,200 Descending Los Angeles Center
11:17AM 34.8256 -120.3733 143° Southeast 235 270 13,200 -1,200 Descending Los Angeles Center
11:17AM 34.7978 -120.3514 147° Southeast 230 265 12,500 -1,200 Descending Los Angeles Center
11:18AM 34.7675 -120.3342 155° Southeast 225 259 12,000 -1,500 Descending Los Angeles Center
11:18AM 34.7319 -120.3078 149° Southeast 224 258 11,000 -1,500 Descending Los Angeles Center
11:19AM 34.6761 -120.2706 151° Southeast 225 259 9,400 -1,800 Descending Los Angeles Center
11:20AM 34.6172 -120.2322 152° Southeast 235 270 7,400 -2,160 Descending Los Angeles Center
11:21AM 34.5936 -120.2094 142° Southeast 240 276 6,500 -1,980 Descending Los Angeles Center
11:21AM 34.5689 -120.1733 130° Southeast 237 273 5,400 -1,500 Descending Los Angeles Center
11:22AM 34.5325 -120.1197 129° Southeast 225 259 4,000 -720 Descending Los Angeles Center
11:23AM 34.4978 -120.0600 125° Southeast 209 241 4,000  Level Los Angeles Center
11:25AM 34.4656 -120.0111 129° Southeast 192 221 4,000  Level Los Angeles Center
11:26AM 34.4342 -119.9669 131° Southeast 150 173 4,000  Level Los Angeles Center
11:27AM 34.4089 -119.9286 129° Southeast 146 168 4,000  Level Los Angeles Center
11:28AM 34.3864 -119.8889 124° Southeast 145 167 4,000 -420 Level Los Angeles Center
11:29AM 34.3750 -119.8258 102° East 144 166 3,100 -1,020 Descending Los Angeles Center
11:30AM 34.3717 -119.7967 98° East 139 160 2,000 -1,260 Descending Los Angeles Center
11:31AM 34.4164 -119.7933 North 136 157 800 -960 Descending Los Angeles Center
11:32AM 34.4278 -119.8297 291° West 131 151 100 -720 Descending Los Angeles Center
11:34AM 34.4167 -119.8333 309° West  Level FlightAware Approximate